Time;durP1;ratioP1;P1;durP2;ratioP2;P2;SDS_P1;SDS_P2;PMS_P1;PMS_P2;Temp;Humidity;BMP_temperature;BMP_pressure;BME280_temperature;BME280_humidity;BME280_pressure;Samples;Min_cycle;Max_cycle;Signal;HPM_P1;HPM_P2
2022/11/27 00:02:26;;;;;;;29.53;16.50;;;4.40;98.60;;;4.23;64.54;95893.44;5025274;28;20463;-56
2022/11/27 00:04:53;;;;;;;28.43;16.73;;;4.40;98.50;;;4.22;64.92;95894.34;5020618;28;20480;-55
2022/11/27 00:07:21;;;;;;;26.47;16.30;;;4.40;98.80;;;4.22;64.90;95898.72;5025410;28;20459;-57
2022/11/27 00:09:48;;;;;;;30.47;17.90;;;4.40;99.20;;;4.21;65.65;95900.47;5019816;28;20468;-56
2022/11/27 00:12:15;;;;;;;27.40;17.10;;;4.40;99.40;;;4.16;66.50;95894.66;5025107;28;20460;-55
2022/11/27 00:14:42;;;;;;;25.83;16.77;;;4.30;99.80;;;4.12;65.18;95895.72;5019519;28;20540;-56
2022/11/27 00:17:10;;;;;;;25.77;15.57;;;4.30;99.00;;;4.10;65.23;95906.19;5025100;28;20492;-57
2022/11/27 00:19:38;;;;;;;29.23;17.67;;;4.30;99.20;;;4.08;66.01;95904.59;5020056;28;20551;-57
2022/11/27 00:22:05;;;;;;;28.33;18.30;;;4.20;99.60;;;4.04;65.66;95898.69;5024328;28;20483;-56
2022/11/27 00:24:33;;;;;;;30.73;16.90;;;4.20;99.40;;;4.03;65.54;95901.38;5019274;28;20915;-56
2022/11/27 00:27:00;;;;;;;30.00;18.90;;;4.20;99.40;;;4.01;65.42;95900.59;5024361;28;20457;-56
2022/11/27 00:29:29;;;;;;;32.90;17.57;;;4.20;99.40;;;3.98;65.99;95903.34;5019375;28;20478;-55
2022/11/27 00:31:56;;;;;;;30.33;17.80;;;4.10;99.50;;;3.95;65.06;95902.59;5024424;28;20465;-55
2022/11/27 00:34:23;;;;;;;31.77;18.70;;;4.10;99.30;;;3.92;65.47;95904.50;5019039;28;20476;-55
2022/11/27 00:36:52;;;;;;;34.20;18.93;;;4.10;99.40;;;3.91;65.60;95910.63;5027836;28;20523;-56
2022/11/27 00:39:19;;;;;;;36.33;18.83;;;4.10;99.50;;;3.90;65.66;95916.75;5023216;28;20617;-57
2022/11/27 00:41:46;;;;;;;52.50;22.37;;;4.00;99.30;;;3.89;65.36;95907.25;5028082;28;20456;-57
2022/11/27 00:44:14;;;;;;;42.60;19.27;;;4.00;99.30;;;3.88;65.38;95908.16;5022614;28;20501;-56
2022/11/27 00:46:41;;;;;;;35.60;19.53;;;4.00;99.30;;;3.88;65.23;95909.00;5027971;28;20459;-57
2022/11/27 00:49:09;;;;;;;35.90;19.83;;;4.10;99.30;;;3.89;65.51;95909.88;5029029;28;20484;-57
2022/11/27 00:51:36;;;;;;;37.53;21.87;;;4.00;99.10;;;3.88;65.37;95916.81;5024888;28;20510;-56
2022/11/27 00:54:05;;;;;;;35.03;20.30;;;4.10;99.30;;;3.88;64.89;95913.38;5027276;28;20484;-54
2022/11/27 00:56:34;;;;;;;36.83;20.77;;;4.10;99.20;;;3.88;65.10;95913.38;5028194;28;20460;-56
2022/11/27 00:59:01;;;;;;;35.13;20.13;;;4.00;99.00;;;3.86;64.73;95916.06;5026892;28;21008;-55
2022/11/27 01:01:30;;;;;;;31.20;19.30;;;4.00;99.10;;;3.85;65.12;95914.34;5025692;28;20483;-56
2022/11/27 01:03:59;;;;;;;35.37;20.50;;;4.00;99.10;;;3.82;65.45;95919.69;5027341;28;20476;-56
2022/11/27 01:06:26;;;;;;;33.27;18.90;;;4.00;99.10;;;3.80;65.10;95918.94;5028005;28;20461;-56
2022/11/27 01:08:54;;;;;;;35.50;19.63;;;4.00;99.10;;;3.80;65.17;95912.91;5026473;28;20588;-55
2022/11/27 01:11:25;;;;;;;36.10;20.53;;;4.00;99.10;;;3.79;65.18;95917.25;5027948;28;20866;-57
2022/11/27 01:13:52;;;;;;;58.53;20.20;;;4.00;99.20;;;3.79;65.40;95919.84;5025920;28;20508;-56
2022/11/27 01:16:21;;;;;;;31.80;18.70;;;4.00;99.20;;;3.76;65.58;95912.19;5027223;28;20472;-56
2022/11/27 01:18:49;;;;;;;31.87;19.37;;;4.00;99.30;;;3.74;65.90;95909.66;5027670;28;20507;-55
2022/11/27 01:21:18;;;;;;;34.23;18.60;;;4.00;99.60;;;3.77;65.73;95906.09;5025164;28;20456;-56
2022/11/27 01:23:45;;;;;;;23.77;16.00;;;3.90;99.60;;;3.78;66.03;95894.75;5027162;28;20479;-55
2022/11/27 01:26:13;;;;;;;34.80;17.37;;;4.00;99.90;;;3.80;66.04;95895.53;5027432;28;20518;-55
2022/11/27 01:28:41;;;;;;;28.43;16.23;;;4.00;99.90;;;3.83;66.21;95897.97;5027522;28;20464;-57
2022/11/27 01:31:12;;;;;;;30.47;17.37;;;4.00;99.80;;;3.86;65.90;95889.19;5026942;28;20464;-54
2022/11/27 01:33:39;;;;;;;29.70;18.13;;;4.00;99.90;;;3.87;66.05;95894.31;5027891;28;20877;-56
2022/11/27 01:36:08;;;;;;;31.60;15.63;;;4.00;99.80;;;3.91;66.07;95889.81;5024076;28;20476;-56
2022/11/27 01:38:35;;;;;;;32.83;18.33;;;4.10;99.90;;;3.92;65.83;95889.72;5027644;28;20565;-55
2022/11/27 01:41:04;;;;;;;29.43;17.83;;;4.10;99.80;;;3.95;65.97;95884.38;5025910;28;20461;-55
2022/11/27 01:43:39;;;;;;;34.40;18.00;;;4.10;99.80;;;3.92;66.16;95874.13;5027080;28;20503;-56
2022/11/27 01:46:31;;;;;;;30.43;17.60;;;4.10;99.90;;;3.97;65.82;95883.44;5026893;28;20460;-57
2022/11/27 01:49:03;;;;;;;26.07;15.33;;;4.10;99.70;;;3.97;65.68;95891.25;5025661;28;20547;-57
2022/11/27 01:51:30;;;;;;;26.10;15.30;;;4.10;99.80;;;3.95;65.83;95879.16;5024268;28;20502;-56
2022/11/27 01:53:57;;;;;;;31.27;17.37;;;4.10;99.80;;;3.97;65.92;95881.69;5026112;28;20558;-55
2022/11/27 01:56:25;;;;;;;24.83;15.80;;;4.10;99.80;;;3.96;66.07;95869.59;5026097;28;20465;-55
2022/11/27 01:58:52;;;;;;;27.93;16.83;;;4.10;99.90;;;3.96;66.38;95877.41;5027376;28;20824;-56
2022/11/27 02:01:23;;;;;;;29.03;15.90;;;4.10;99.90;;;3.97;66.45;95876.50;5026427;28;20880;-56
2022/11/27 02:03:50;;;;;;;23.20;15.43;;;4.10;99.90;;;3.96;66.38;95880.00;5027089;28;20479;-57
2022/11/27 02:06:17;;;;;;;28.03;16.20;;;4.10;99.90;;;3.98;65.89;95882.53;5026651;28;20991;-56
2022/11/27 02:08:45;;;;;;;29.07;17.07;;;4.10;99.90;;;3.99;66.37;95884.22;5026871;28;20500;-55
2022/11/27 02:11:16;;;;;;;30.10;16.07;;;4.10;99.90;;;4.00;65.85;95881.56;5024822;28;20904;-58
2022/11/27 02:13:46;;;;;;;28.53;14.60;;;4.20;99.90;;;4.03;66.78;95880.53;5026726;28;20616;-54
2022/11/27 02:16:26;;;;;;;27.63;16.43;;;4.20;99.90;;;4.05;66.63;95878.72;5025284;28;20452;-58
2022/11/27 02:18:59;;;;;;;25.30;15.37;;;4.20;99.90;;;4.04;66.21;95875.25;5023716;28;20500;-56
2022/11/27 02:21:34;;;;;;;24.93;15.70;;;4.20;99.90;;;4.07;66.13;95876.88;5025390;28;21087;-54
2022/11/27 02:24:38;;;;;;;25.30;15.93;;;4.20;99.90;;;4.10;66.70;95881.94;5027106;28;20476;-55
2022/11/27 02:27:38;;;;;;;23.13;15.33;;;4.20;99.90;;;4.08;66.24;95884.63;5024022;28;20448;-55
2022/11/27 02:30:08;;;;;;;27.17;15.60;;;4.20;99.90;;;4.08;66.47;95889.00;5025248;28;20480;-54
2022/11/27 02:32:38;;;;;;;29.93;17.17;;;4.20;99.90;;;4.08;66.33;95887.22;5026837;28;20457;-56
2022/11/27 02:35:09;;;;;;;25.07;15.97;;;4.20;99.90;;;4.10;66.38;95882.78;5026889;28;20491;-54
2022/11/27 02:37:41;;;;;;;21.60;15.37;;;4.30;99.90;;;4.12;66.72;95885.28;5025814;28;20472;-55
2022/11/27 02:40:11;;;;;;;29.53;17.23;;;4.30;99.90;;;4.12;66.57;95883.56;5026608;28;20964;-56
2022/11/27 02:42:40;;;;;;;25.37;15.40;;;4.30;99.90;;;4.11;67.03;95881.88;5022601;28;21022;-57
2022/11/27 02:45:11;;;;;;;24.33;15.37;;;4.30;99.90;;;4.10;66.17;95893.19;5023771;28;20476;-55
2022/11/27 02:47:39;;;;;;;25.87;15.97;;;4.20;99.90;;;4.10;66.77;95898.38;5026653;28;20524;-56
2022/11/27 02:50:09;;;;;;;24.07;17.50;;;4.20;99.90;;;4.12;65.88;95893.97;5025816;28;20583;-57
2022/11/27 02:52:36;;;;;;;30.83;16.43;;;4.30;99.90;;;4.16;66.55;95891.22;5025813;28;21048;-54
2022/11/27 02:55:06;;;;;;;27.23;17.20;;;4.30;99.90;;;4.16;66.41;95888.63;5025949;28;20476;-56
2022/11/27 02:57:34;;;;;;;28.37;16.07;;;4.30;99.90;;;4.20;66.15;95892.72;5026327;28;20499;-55
2022/11/27 03:00:01;;;;;;;27.50;15.03;;;4.30;99.90;;;4.20;66.05;95896.19;5024671;28;20487;-57
2022/11/27 03:02:33;;;;;;;27.67;16.23;;;4.30;99.90;;;4.25;65.88;95891.59;5024939;28;20460;-55
2022/11/27 03:05:01;;;;;;;28.50;16.30;;;4.40;99.90;;;4.26;66.17;95885.47;5024095;28;21020;-55
2022/11/27 03:07:33;;;;;;;25.73;17.07;;;4.40;99.90;;;4.28;66.16;95894.06;5022348;28;20456;-55
2022/11/27 03:10:03;;;;;;;25.80;16.03;;;4.40;99.90;;;4.30;66.25;95888.75;5025023;28;20489;-54
2022/11/27 03:12:31;;;;;;;31.03;17.20;;;4.50;99.90;;;4.30;66.18;95894.81;5024565;28;20453;-57
2022/11/27 03:14:58;;;;;;;33.90;17.43;;;4.50;99.90;;;4.30;65.76;95902.63;5025836;28;20484;-56
2022/11/27 03:17:38;;;;;;;31.60;17.10;;;4.50;99.90;;;4.34;66.06;95898.13;5023550;28;20485;-55
2022/11/27 03:20:10;;;;;;;27.33;17.10;;;4.50;99.90;;;4.37;65.76;95902.31;5024696;28;20480;-56
2022/11/27 03:22:38;;;;;;;26.33;15.67;;;4.50;99.90;;;4.39;66.09;95903.09;5025281;28;20460;-56
2022/11/27 03:25:06;;;;;;;29.30;17.57;;;4.50;99.90;;;4.40;65.87;95903.03;5024576;28;21008;-57
2022/11/27 03:27:35;;;;;;;26.97;16.03;;;4.50;99.90;;;4.41;66.17;95909.91;5024687;28;20817;-58
2022/11/27 03:30:04;;;;;;;29.73;17.73;;;4.60;99.90;;;4.44;65.83;95907.13;5025098;28;21110;-53
2022/11/27 03:32:33;;;;;;;27.50;16.00;;;4.60;99.90;;;4.45;65.70;95905.41;5025120;28;20461;-56
2022/11/27 03:35:01;;;;;;;33.37;18.10;;;4.60;99.90;;;4.47;65.64;95904.38;5025588;28;20542;-54
2022/11/27 03:37:29;;;;;;;29.77;17.37;;;4.60;99.90;;;4.47;65.60;95899.16;5023436;28;20452;-54
2022/11/27 03:39:56;;;;;;;24.67;16.07;;;4.60;99.80;;;4.48;65.25;95902.63;5024922;28;20488;-54
2022/11/27 03:42:26;;;;;;;28.80;17.60;;;4.60;99.80;;;4.48;65.46;95900.88;5025218;28;20889;-56
2022/11/27 03:44:58;;;;;;;26.47;16.70;;;4.60;99.80;;;4.47;66.54;95893.13;5025417;28;20587;-55
2022/11/27 03:47:38;;;;;;;26.63;16.73;;;4.60;99.90;;;4.46;65.65;95894.91;5022127;28;20453;-55
2022/11/27 03:50:23;;;;;;;32.77;16.73;;;4.60;99.90;;;4.45;65.66;95895.81;5022055;28;20489;-55
2022/11/27 03:52:58;;;;;;;34.87;18.90;;;4.60;99.80;;;4.45;65.63;95897.59;5022484;28;20449;-56
2022/11/27 03:55:31;;;;;;;27.47;16.10;;;4.60;99.80;;;4.45;66.05;95895.81;5024399;28;20538;-54
2022/11/27 03:58:00;;;;;;;29.33;17.63;;;4.60;99.90;;;4.48;65.74;95892.22;5023705;28;20518;-57
2022/11/27 04:00:28;;;;;;;35.40;18.20;;;4.60;99.90;;;4.50;65.65;95895.59;5023862;28;20891;-56
2022/11/27 04:02:57;;;;;;;28.33;16.50;;;4.60;99.90;;;4.51;65.55;95886.00;5020039;28;20464;-55
2022/11/27 04:05:24;;;;;;;32.20;17.93;;;4.70;99.90;;;4.53;65.83;95885.00;5020353;28;20492;-54
2022/11/27 04:07:52;;;;;;;28.77;17.73;;;4.70;99.90;;;4.53;65.63;95889.38;5025257;28;20530;-57
2022/11/27 04:10:19;;;;;;;30.63;17.80;;;4.60;99.90;;;4.53;65.67;95895.44;5024144;28;20973;-56
2022/11/27 04:12:46;;;;;;;31.60;18.83;;;4.60;99.90;;;4.54;65.55;95886.69;5024910;28;20965;-56
2022/11/27 04:15:14;;;;;;;32.57;17.97;;;4.70;99.80;;;4.56;65.71;95884.84;5025252;28;20476;-53
2022/11/27 04:17:41;;;;;;;33.13;16.87;;;4.70;99.90;;;4.55;65.90;95885.75;5025554;28;20452;-54
2022/11/27 04:20:12;;;;;;;38.93;20.47;;;4.70;99.90;;;4.56;65.52;95887.44;5025546;28;20480;-55
2022/11/27 04:22:39;;;;;;;30.20;19.10;;;4.70;99.90;;;4.56;65.62;95884.84;5025279;28;20503;-53
2022/11/27 04:25:07;;;;;;;33.73;17.80;;;4.70;99.90;;;4.54;65.62;95878.88;5025628;28;20485;-55
2022/11/27 04:27:34;;;;;;;33.53;19.67;;;4.70;99.90;;;4.52;65.55;95875.50;5025333;28;20490;-56
2022/11/27 04:30:02;;;;;;;29.13;17.97;;;4.70;99.90;;;4.52;66.10;95878.09;5025373;28;20579;-56
2022/11/27 04:32:29;;;;;;;31.03;18.50;;;4.70;99.90;;;4.50;65.75;95874.75;5025073;28;20499;-56
2022/11/27 04:34:56;;;;;;;30.70;18.03;;;4.60;99.80;;;4.48;65.92;95880.03;5025111;28;20476;-54
2022/11/27 04:37:25;;;;;;;31.20;18.27;;;4.70;99.80;;;4.49;65.74;95901.69;5024877;28;20845;-55
2022/11/27 04:39:52;;;;;;;35.10;19.23;;;4.60;99.90;;;4.48;65.71;95900.03;5022983;28;20492;-56
2022/11/27 04:42:19;;;;;;;31.90;19.93;;;4.60;99.80;;;4.47;65.52;95898.34;5024272;28;20461;-56
2022/11/27 04:44:47;;;;;;;30.83;17.87;;;4.60;99.80;;;4.47;66.10;95900.94;5023696;28;21094;-55
2022/11/27 04:47:14;;;;;;;32.73;16.50;;;4.60;99.90;;;4.47;65.93;95901.78;5025111;28;20449;-56
2022/11/27 04:49:41;;;;;;;36.83;18.90;;;4.60;99.90;;;4.49;65.80;95899.09;5022204;28;20538;-53
2022/11/27 04:52:09;;;;;;;32.33;18.83;;;4.60;99.90;;;4.48;65.81;95903.47;5024639;28;20472;-57
2022/11/27 04:54:38;;;;;;;40.33;20.23;;;4.60;99.90;;;4.49;65.69;95906.91;5024925;28;20480;-54
2022/11/27 04:57:05;;;;;;;39.37;19.13;;;4.60;99.90;;;4.50;66.04;95908.59;5025263;28;20457;-55
2022/11/27 04:59:32;;;;;;;36.27;19.17;;;4.60;99.90;;;4.50;65.83;95895.59;5024345;28;21048;-56
2022/11/27 05:02:00;;;;;;;36.40;19.87;;;4.60;99.90;;;4.51;66.04;95901.63;5024801;28;20560;-55
2022/11/27 05:04:27;;;;;;;37.50;21.10;;;4.60;99.90;;;4.51;65.97;95904.22;5023740;28;20476;-54
2022/11/27 05:06:54;;;;;;;27.83;17.90;;;4.60;99.90;;;4.50;65.87;95892.97;5025100;28;20441;-57
2022/11/27 05:09:21;;;;;;;30.87;18.83;;;4.60;99.90;;;4.49;65.93;95899.09;5020986;28;20528;-55
2022/11/27 05:11:50;;;;;;;31.73;18.73;;;4.60;99.90;;;4.48;66.00;95897.44;5023736;28;20449;-56
2022/11/27 05:14:18;;;;;;;32.40;19.00;;;4.60;99.90;;;4.47;65.95;95895.72;5020153;28;20486;-57
2022/11/27 05:16:48;;;;;;;33.77;18.80;;;4.60;99.90;;;4.46;66.03;95894.03;5021636;28;20457;-55
2022/11/27 05:19:16;;;;;;;35.37;19.57;;;4.60;99.90;;;4.47;66.18;95890.53;5024236;28;20555;-56
2022/11/27 05:21:43;;;;;;;39.20;23.03;;;4.60;99.90;;;4.47;66.21;95896.56;5021918;28;20973;-57
2022/11/27 05:24:11;;;;;;;43.30;21.67;;;4.60;99.90;;;4.48;66.07;95902.63;5023216;28;20476;-55
2022/11/27 05:26:38;;;;;;;38.40;22.23;;;4.60;99.90;;;4.48;66.48;95907.84;5027454;28;20819;-54
2022/11/27 05:29:07;;;;;;;38.60;20.90;;;4.60;99.90;;;4.48;66.26;95906.06;5028088;28;20920;-54
2022/11/27 05:31:35;;;;;;;38.67;20.47;;;4.60;99.90;;;4.49;66.14;95909.50;5026704;28;20464;-56
2022/11/27 05:34:02;;;;;;;42.63;22.97;;;4.60;99.90;;;4.48;66.20;95919.09;5025629;28;20488;-56
2022/11/27 05:36:29;;;;;;;35.53;21.30;;;4.60;99.90;;;4.50;66.20;95913.81;5028382;28;20464;-55
2022/11/27 05:38:57;;;;;;;40.43;20.33;;;4.60;99.90;;;4.52;66.35;95909.38;5026514;28;20496;-55
2022/11/27 05:41:24;;;;;;;42.40;19.90;;;4.70;99.90;;;4.52;66.15;95914.56;5023128;28;20460;-54
2022/11/27 05:43:51;;;;;;;32.27;19.63;;;4.70;99.90;;;4.52;66.42;95913.75;5027182;28;20488;-55
2022/11/27 05:46:21;;;;;;;32.93;18.23;;;4.70;99.90;;;4.52;66.35;95922.38;5027099;28;20895;-54
2022/11/27 05:48:48;;;;;;;38.90;19.67;;;4.60;99.90;;;4.53;66.55;95921.47;5026963;28;20480;-56
2022/11/27 05:51:16;;;;;;;31.90;18.03;;;4.60;99.90;;;4.51;66.60;95918.13;5024660;28;20460;-55
2022/11/27 05:53:43;;;;;;;32.53;18.50;;;4.60;99.90;;;4.49;66.23;95914.72;5026691;28;20515;-55
2022/11/27 05:56:11;;;;;;;40.63;19.23;;;4.60;99.90;;;4.44;66.49;95901.09;5026410;28;20898;-55
2022/11/27 05:58:39;;;;;;;42.20;19.27;;;4.60;99.90;;;4.46;66.28;95914.88;5025397;28;20543;-56
2022/11/27 06:01:07;;;;;;;31.77;18.57;;;4.60;99.90;;;4.45;66.56;95921.03;5025085;28;20477;-55
2022/11/27 06:03:37;;;;;;;29.77;18.97;;;4.60;99.90;;;4.46;66.40;95928.75;5027009;28;20448;-55
2022/11/27 06:06:07;;;;;;;33.33;18.57;;;4.60;99.90;;;4.45;66.50;95924.47;5025239;28;20495;-55
2022/11/27 06:08:36;;;;;;;36.87;20.57;;;4.60;99.90;;;4.46;66.39;95926.16;5026424;28;20539;-57
2022/11/27 06:11:07;;;;;;;36.77;19.53;;;4.60;99.90;;;4.48;66.36;95923.47;5026991;28;20468;-56
2022/11/27 06:13:34;;;;;;;32.60;18.93;;;4.60;99.90;;;4.49;66.38;95922.53;5027271;28;21144;-55
2022/11/27 06:16:06;;;;;;;38.30;20.07;;;4.60;99.90;;;4.52;66.26;95919.78;5027547;28;20928;-56
2022/11/27 06:18:35;;;;;;;35.30;19.90;;;4.60;99.90;;;4.55;66.38;95930.06;5027594;28;20480;-57
2022/11/27 06:21:07;;;;;;;38.40;20.43;;;4.70;99.90;;;4.58;66.10;95934.28;5027513;28;20518;-54
2022/11/27 06:23:34;;;;;;;35.97;19.03;;;4.70;99.90;;;4.62;66.25;95941.88;5027446;28;20458;-54
2022/11/27 06:26:14;;;;;;;28.33;17.47;;;4.70;99.90;;;4.65;66.29;95933.06;5027022;28;20511;-55
2022/11/27 06:28:41;;;;;;;31.27;18.87;;;4.80;99.90;;;4.68;66.07;95945.94;5024624;28;20536;-54
2022/11/27 06:31:09;;;;;;;37.90;21.10;;;4.80;99.90;;;4.70;66.26;95933.66;5027106;28;20859;-55
2022/11/27 06:33:38;;;;;;;29.63;18.70;;;4.80;99.90;;;4.74;65.90;95931.72;5025474;28;20507;-56
2022/11/27 06:36:06;;;;;;;40.17;21.27;;;4.90;99.90;;;4.74;66.23;95936.94;5026988;28;20593;-57
2022/11/27 06:38:33;;;;;;;36.00;19.80;;;4.90;99.90;;;4.73;65.80;95938.72;5027095;28;20492;-56
2022/11/27 06:41:05;;;;;;;38.30;19.60;;;4.90;99.90;;;4.74;66.20;95939.53;5026949;28;20507;-55
2022/11/27 06:43:32;;;;;;;45.37;19.73;;;4.90;99.90;;;4.73;65.87;95936.09;5026953;28;20571;-55
2022/11/27 06:46:00;;;;;;;38.93;20.97;;;4.90;99.90;;;4.75;65.98;95934.25;5026697;28;20457;-56
2022/11/27 06:48:27;;;;;;;33.70;19.30;;;4.90;99.90;;;4.77;66.15;95940.25;5027032;28;20461;-55
2022/11/27 06:50:59;;;;;;;39.03;21.33;;;4.90;99.90;;;4.78;66.23;95930.66;5026378;28;20456;-55
2022/11/27 06:53:27;;;;;;;39.97;19.80;;;4.90;99.90;;;4.84;66.08;95936.41;5027138;28;21036;-55
2022/11/27 06:55:54;;;;;;;39.60;20.43;;;4.90;99.90;;;4.88;65.60;95928.41;5026378;28;20961;-56
2022/11/27 06:58:21;;;;;;;36.07;19.63;;;5.00;99.90;;;4.93;65.56;95934.25;5026375;28;20456;-55
2022/11/27 07:00:48;;;;;;;38.53;21.00;;;5.00;99.90;;;4.96;65.87;95936.72;5026061;28;20484;-55
2022/11/27 07:03:15;;;;;;;42.10;21.50;;;5.10;99.90;;;4.99;65.56;95933.94;5026259;28;20453;-56
2022/11/27 07:05:43;;;;;;;39.37;20.00;;;5.10;99.90;;;5.02;65.72;95929.41;5026414;28;20677;-55
2022/11/27 07:08:11;;;;;;;38.53;20.40;;;5.10;99.90;;;5.03;65.20;95931.09;5025649;28;20452;-54
2022/11/27 07:10:39;;;;;;;36.23;19.60;;;5.10;99.90;;;5.08;65.45;95933.47;5026030;28;20977;-54
2022/11/27 07:13:06;;;;;;;44.17;20.53;;;5.20;99.90;;;5.12;65.38;95941.97;5026483;28;20461;-56
2022/11/27 07:15:34;;;;;;;38.63;21.73;;;5.20;99.80;;;5.15;65.33;95929.59;5025924;28;20479;-55
2022/11/27 07:18:01;;;;;;;37.80;19.77;;;5.30;99.90;;;5.21;65.22;95928.44;5026161;28;20453;-56
2022/11/27 07:20:29;;;;;;;35.70;19.80;;;5.30;99.90;;;5.28;65.13;95931.56;5025641;28;20500;-56
2022/11/27 07:22:56;;;;;;;35.83;19.80;;;5.40;99.80;;;5.35;64.95;95931.16;5025514;28;20472;-55
2022/11/27 07:25:25;;;;;;;35.17;18.20;;;5.40;99.70;;;5.46;64.66;95927.13;5025998;28;20485;-54
2022/11/27 07:27:52;;;;;;;32.00;19.77;;;5.50;99.50;;;5.54;64.60;95927.56;5025573;28;20448;-54
2022/11/27 07:30:19;;;;;;;37.97;20.30;;;5.60;99.50;;;5.62;64.77;95927.13;5025463;28;21032;-53
2022/11/27 07:32:46;;;;;;;31.70;18.67;;;5.70;99.50;;;5.72;64.48;95923.13;5024293;28;21214;-56
2022/11/27 07:35:14;;;;;;;36.23;20.43;;;5.80;99.30;;;5.78;64.32;95927.13;5021542;28;20473;-55
2022/11/27 07:37:41;;;;;;;42.73;19.60;;;5.90;99.60;;;5.80;64.11;95926.13;5025602;28;20506;-54
2022/11/27 07:40:09;;;;;;;38.10;19.83;;;5.90;99.10;;;5.83;64.30;95925.97;5025648;28;20561;-56
2022/11/27 07:42:38;;;;;;;41.57;19.80;;;5.90;99.10;;;5.87;63.76;95922.28;5025978;28;20483;-56
2022/11/27 07:45:06;;;;;;;33.33;18.93;;;6.00;99.00;;;5.89;64.11;95925.63;5024423;28;20465;-57
2022/11/27 07:47:34;;;;;;;34.23;20.97;;;6.00;99.00;;;5.92;63.94;95927.25;5025279;28;20445;-56
2022/11/27 07:50:01;;;;;;;34.83;19.90;;;6.00;98.90;;;5.97;63.59;95922.63;5025611;28;20473;-55
2022/11/27 07:52:28;;;;;;;36.70;21.47;;;6.00;98.90;;;5.94;63.63;95917.53;5024793;28;20460;-56
2022/11/27 07:54:55;;;;;;;40.17;20.73;;;6.10;98.80;;;5.96;63.41;95920.91;5025055;28;20472;-56
2022/11/27 07:57:23;;;;;;;33.77;20.57;;;6.10;98.60;;;5.98;63.49;95921.72;5025191;28;20460;-55
2022/11/27 07:59:51;;;;;;;32.07;19.17;;;6.10;98.70;;;6.01;63.55;95918.94;5025339;28;20500;-59
2022/11/27 08:02:18;;;;;;;41.13;21.33;;;6.10;98.70;;;6.05;63.45;95923.03;5024670;28;20715;-55
2022/11/27 08:04:46;;;;;;;38.90;20.13;;;6.10;98.60;;;6.08;63.53;95922.84;5024300;28;20480;-55
2022/11/27 08:07:13;;;;;;;32.00;19.13;;;6.20;98.60;;;6.09;63.53;95916.72;5024787;28;20483;-54
2022/11/27 08:09:40;;;;;;;34.50;19.30;;;6.20;98.60;;;6.13;63.68;95924.38;5025248;28;20472;-56
2022/11/27 08:12:08;;;;;;;38.63;20.30;;;6.20;98.60;;;6.16;63.35;95921.59;5025061;28;20479;-56
2022/11/27 08:14:35;;;;;;;33.27;18.00;;;6.20;98.60;;;6.17;63.43;95920.69;5025158;28;21026;-56
2022/11/27 08:17:03;;;;;;;37.00;20.13;;;6.30;98.60;;;6.16;63.13;95913.75;5025361;28;20510;-55
2022/11/27 08:19:31;;;;;;;31.67;18.37;;;6.20;98.20;;;6.15;63.10;95925.97;5025014;28;20500;-55
2022/11/27 08:21:58;;;;;;;44.33;21.53;;;6.20;98.20;;;6.13;62.96;95922.59;5024911;28;20460;-57
2022/11/27 08:24:25;;;;;;;38.40;20.67;;;6.20;98.20;;;6.15;63.21;95930.34;5023209;28;20480;-59
2022/11/27 08:26:52;;;;;;;34.80;20.40;;;6.20;98.20;;;6.15;63.32;95919.91;5025019;28;20499;-56
2022/11/27 08:29:20;;;;;;;32.10;21.03;;;6.20;98.30;;;6.16;63.26;95926.81;5025165;28;20965;-56
2022/11/27 08:31:47;;;;;;;41.17;22.23;;;6.20;98.20;;;6.15;62.91;95917.28;5024735;28;20460;-54
2022/11/27 08:34:15;;;;;;;38.00;20.90;;;6.30;98.30;;;6.17;63.20;95923.28;5023599;28;20536;-56
2022/11/27 08:36:43;;;;;;;39.20;21.13;;;6.20;98.20;;;6.20;62.84;95917.88;5025194;28;20461;-56
2022/11/27 08:39:10;;;;;;;33.30;21.33;;;6.30;98.30;;;6.22;62.73;95913.41;5025070;28;20872;-57
2022/11/27 08:41:37;;;;;;;38.70;20.63;;;6.30;98.10;;;6.26;62.84;95910.53;5024960;28;20456;-57
2022/11/27 08:44:05;;;;;;;36.27;21.50;;;6.30;98.10;;;6.28;62.60;95921.72;5022780;28;20564;-55
2022/11/27 08:46:32;;;;;;;36.77;20.80;;;6.40;98.00;;;6.31;62.49;95912.06;5024736;28;20460;-56
2022/11/27 08:48:59;;;;;;;48.70;26.03;;;6.40;98.00;;;6.34;62.62;95907.47;5024625;28;20484;-57
2022/11/27 08:51:28;;;;;;;42.00;23.30;;;6.40;97.80;;;6.31;62.08;95902.44;5025245;28;20467;-56
2022/11/27 08:53:56;;;;;;;38.03;22.77;;;6.40;97.70;;;6.31;62.64;95906.81;5025526;28;20468;-55
2022/11/27 08:56:25;;;;;;;44.67;24.10;;;6.40;97.80;;;6.31;62.61;95902.44;5025840;28;20502;-55
2022/11/27 08:58:52;;;;;;;51.63;27.90;;;6.40;97.70;;;6.30;62.42;95892.91;5028505;28;20554;-54
2022/11/27 09:01:21;;;;;;;50.23;24.53;;;6.40;97.60;;;6.31;62.69;95897.22;5028565;28;20452;-55
2022/11/27 09:03:48;;;;;;;41.40;24.03;;;6.40;97.80;;;6.36;62.70;95900.38;5025999;28;20629;-56
2022/11/27 09:06:17;;;;;;;40.57;23.07;;;6.40;97.80;;;6.42;62.50;95894.81;5028248;28;20448;-55
2022/11/27 09:08:45;;;;;;;37.63;22.33;;;6.50;97.70;;;6.49;62.02;95897.94;5024756;28;20475;-56
2022/11/27 09:11:14;;;;;;;39.70;23.80;;;6.50;97.70;;;6.56;62.12;95899.22;5028372;28;20613;-57
2022/11/27 09:13:41;;;;;;;47.63;23.70;;;6.60;97.60;;;6.65;62.09;95897.84;5028578;28;20811;-56
2022/11/27 09:16:10;;;;;;;43.93;25.20;;;6.70;97.60;;;6.73;62.18;95894.78;5028522;28;20458;-56
2022/11/27 09:18:37;;;;;;;42.20;25.03;;;6.70;97.50;;;6.81;61.44;95892.56;5028400;28;20474;-56
2022/11/27 09:21:07;;;;;;;48.37;26.83;;;6.90;97.50;;;6.90;61.60;95886.78;5028906;28;20496;-56
2022/11/27 09:23:34;;;;;;;43.23;26.83;;;6.90;97.30;;;6.96;61.32;95885.56;5028461;28;20452;-55
2022/11/27 09:26:04;;;;;;;44.37;27.07;;;7.00;97.20;;;7.04;61.47;95888.56;5027877;28;20453;-58
2022/11/27 09:28:32;;;;;;;43.17;27.37;;;7.10;97.40;;;7.13;61.13;95882.78;5027087;28;20479;-56
2022/11/27 09:31:01;;;;;;;55.03;28.70;;;7.10;96.90;;;7.18;60.49;95878.09;5021289;28;20548;-58
2022/11/27 09:33:30;;;;;;;49.23;27.60;;;7.20;96.70;;;7.24;60.47;95883.91;5026268;28;20456;-57
2022/11/27 09:35:58;;;;;;;48.53;26.20;;;7.30;96.50;;;7.30;60.91;95870.44;5025000;28;20440;-57
2022/11/27 09:38:25;;;;;;;45.30;25.40;;;7.30;96.50;;;7.36;60.89;95872.69;5021663;28;20444;-56
2022/11/27 09:40:53;;;;;;;43.90;25.67;;;7.40;96.50;;;7.45;60.54;95872.09;5021576;28;21079;-57
2022/11/27 09:43:28;;;;;;;41.90;25.70;;;7.50;96.50;;;7.53;60.09;95869.84;5025826;28;20456;-56
2022/11/27 09:45:59;;;;;;;42.17;25.73;;;7.60;96.60;;;7.63;60.69;95858.78;5024632;28;20964;-58
2022/11/27 09:48:32;;;;;;;46.10;25.70;;;7.70;96.60;;;7.75;60.48;95858.00;5025592;28;20855;-60
2022/11/27 09:50:59;;;;;;;39.20;22.70;;;7.80;96.50;;;7.88;60.30;95853.66;5024981;28;20464;-55
2022/11/27 09:53:31;;;;;;;53.17;26.70;;;7.90;96.50;;;8.04;59.88;95852.66;5025503;28;20457;-56
2022/11/27 09:55:59;;;;;;;57.30;29.57;;;8.00;96.30;;;8.19;59.49;95850.81;5020946;28;20449;-55
2022/11/27 09:58:36;;;;;;;55.83;27.13;;;8.10;95.90;;;8.29;58.64;95849.28;5025092;28;20449;-58
2022/11/27 10:01:11;;;;;;;49.10;26.40;;;8.30;95.30;;;8.34;58.54;95846.34;5024373;28;20472;-55
2022/11/27 10:03:40;;;;;;;47.97;26.37;;;8.30;95.10;;;8.37;58.54;95839.09;5026423;28;20510;-54
2022/11/27 10:06:25;;;;;;;49.03;25.90;;;8.40;95.00;;;8.44;58.43;95834.31;5024687;28;20456;-57
2022/11/27 10:09:02;;;;;;;47.10;27.07;;;8.50;95.10;;;8.54;58.83;95829.31;5024887;28;20522;-56
2022/11/27 10:11:31;;;;;;;45.13;26.13;;;8.50;95.00;;;8.64;58.71;95826.91;5027378;28;20452;-56
2022/11/27 10:14:16;;;;;;;49.13;27.87;;;8.60;94.80;;;8.76;58.24;95828.69;5023941;28;20469;-54
2022/11/27 10:16:47;;;;;;;41.47;25.50;;;8.70;94.80;;;8.87;58.02;95826.16;5026657;28;20525;-57
2022/11/27 10:19:27;;;;;;;48.87;25.07;;;8.80;94.50;;;8.95;57.78;95816.00;5027350;28;20869;-56
2022/11/27 10:21:59;;;;;;;42.90;25.20;;;8.90;94.30;;;9.08;57.40;95817.78;5024793;28;20968;-55
2022/11/27 10:24:35;;;;;;;49.70;27.63;;;9.00;94.10;;;9.18;57.14;95818.78;5027135;28;20507;-56
2022/11/27 10:27:02;;;;;;;49.03;25.90;;;9.10;94.00;;;9.28;57.14;95806.69;5026696;28;20528;-57
2022/11/27 10:29:36;;;;;;;48.13;26.60;;;9.20;93.90;;;9.41;57.03;95803.19;5026714;28;20836;-55